Time;durP1;ratioP1;P1;durP2;ratioP2;P2;SDS_P1;SDS_P2;PMS_P1;PMS_P2;Temp;Humidity;BMP_temperature;BMP_pressure;BME280_temperature;BME280_humidity;BME280_pressure;Samples;Min_cycle;Max_cycle;Signal;HPM_P1;HPM_P2
2023/06/12 00:00:52;;;;;;;;;34.00;32.00;;;;;21.82;78.28;101163.19;5032712;28;45516;-72
2023/06/12 00:03:19;;;;;;;;;34.00;25.67;;;;;21.76;77.94;101154.69;5027395;28;45389;-72
2023/06/12 00:05:46;;;;;;;;;34.33;31.00;;;;;21.72;80.06;101148.63;5025335;28;45399;-72
2023/06/12 00:08:13;;;;;;;;;36.00;30.00;;;;;21.65;80.04;101142.78;5037479;28;46143;-71
2023/06/12 00:10:40;;;;;;;;;37.33;32.67;;;;;21.59;82.63;101145.88;5037803;28;45503;-71
2023/06/12 00:13:08;;;;;;;;;44.67;30.33;;;;;21.56;82.58;101143.38;5038132;28;45453;-72
2023/06/12 00:15:34;;;;;;;;;35.67;30.00;;;;;21.55;82.12;101141.66;5036443;28;45346;-72
2023/06/12 00:18:00;;;;;;;;;32.33;30.00;;;;;21.48;83.12;101133.13;5036754;28;45388;-72
2023/06/12 00:20:25;;;;;;;;;28.33;23.00;;;;;21.44;84.20;101128.06;5037714;28;45470;-71
2023/06/12 00:22:51;;;;;;;;;35.67;28.67;;;;;21.49;84.99;101145.56;5037628;28;45413;-71
2023/06/12 00:25:16;;;;;;;;;31.33;29.00;;;;;21.34;81.84;101119.72;5038079;28;45255;-72
2023/06/12 00:27:41;;;;;;;;;33.00;26.00;;;;;21.41;81.47;101129.09;5036983;28;45704;-72
2023/06/12 00:30:07;;;;;;;;;32.67;30.00;;;;;21.37;81.77;101117.72;5037363;28;45465;-72
2023/06/12 00:32:33;;;;;;;;;31.33;29.00;;;;;21.29;83.30;101100.38;5036989;28;45542;-72
2023/06/12 00:34:58;;;;;;;;;32.00;31.00;;;;;21.32;81.56;101095.72;5030031;28;45143;-72
2023/06/12 00:37:24;;;;;;;;;38.33;33.33;;;;;21.34;82.27;101104.50;5037533;28;46053;-72
2023/06/12 00:39:51;;;;;;;;;40.00;31.67;;;;;21.29;81.98;101097.72;5037044;28;45416;-72
2023/06/12 00:42:16;;;;;;;;;43.33;34.67;;;;;21.25;81.36;101090.81;5029604;28;45473;-72
2023/06/12 00:44:42;;;;;;;;;42.00;35.00;;;;;21.25;83.80;101082.78;5027432;28;45428;-72
2023/06/12 00:47:09;;;;;;;;;39.67;34.33;;;;;21.28;83.66;101086.16;5037313;28;46272;-72
2023/06/12 00:49:34;;;;;;;;;44.67;34.67;;;;;21.25;83.78;101080.09;5037402;28;45408;-71
2023/06/12 00:52:01;;;;;;;;;41.67;34.00;;;;;21.18;83.21;101064.44;5037366;28;45329;-71
2023/06/12 00:54:27;;;;;;;;;29.33;29.33;;;;;21.24;83.35;101076.56;5029263;28;45484;-72
2023/06/12 00:56:53;;;;;;;;;35.67;32.33;;;;;21.16;83.03;101063.69;5019700;28;45219;-72
2023/06/12 00:59:18;;;;;;;;;39.67;33.67;;;;;21.20;82.82;101070.56;5036060;28;45302;-72
2023/06/12 01:01:43;;;;;;;;;39.00;33.67;;;;;21.21;85.17;101074.94;5037414;28;45258;-71
2023/06/12 01:04:09;;;;;;;;;39.67;34.33;;;;;21.15;86.45;101053.91;5037489;28;45393;-71
2023/06/12 01:06:54;;;;;;;;;36.67;31.33;;;;;21.20;83.54;101050.94;5027363;28;46172;-72
2023/06/12 01:09:38;;;;;;;;;36.33;33.00;;;;;21.29;84.50;101065.56;5030800;28;45352;-71
2023/06/12 01:12:05;;;;;;;;;39.67;33.00;;;;;21.21;85.63;101047.31;5036796;28;45367;-72
2023/06/12 01:14:31;;;;;;;;;40.67;32.00;;;;;21.30;87.25;101059.25;5037285;28;45389;-72
2023/06/12 01:17:01;;;;;;;;;38.67;32.33;;;;;21.27;84.84;101073.69;5036640;28;45392;-72
2023/06/12 01:19:27;;;;;;;;;34.00;32.33;;;;;21.24;86.03;101089.13;5037000;28;45419;-72
2023/06/12 01:21:59;;;;;;;;;38.33;34.67;;;;;21.03;89.06;101060.91;5036673;28;45168;-72
2023/06/12 01:24:46;;;;;;;;;36.00;33.33;;;;;21.26;88.58;101079.16;5036894;28;45194;-71
2023/06/12 01:27:23;;;;;;;;;39.67;33.67;;;;;21.22;86.20;101091.91;5036143;28;46648;-71
2023/06/12 01:30:19;;;;;;;;;34.33;31.67;;;;;20.92;89.34;101052.66;5036539;28;45248;-71
2023/06/12 01:32:50;;;;;;;;;39.33;33.33;;;;;21.17;87.55;101088.63;5033140;28;45345;-71
2023/06/12 01:35:23;;;;;;;;;36.33;32.33;;;;;21.09;89.09;101081.06;5029419;28;45359;-72
2023/06/12 01:37:58;;;;;;;;;39.00;33.33;;;;;21.18;88.49;101090.34;5036339;28;45959;-72
2023/06/12 01:40:26;;;;;;;;;41.67;36.00;;;;;21.17;88.08;101096.66;5029300;28;45447;-71
2023/06/12 01:42:52;;;;;;;;;39.00;33.67;;;;;21.11;91.37;101081.84;5019419;28;45396;-71
2023/06/12 01:45:17;;;;;;;;;39.67;33.33;;;;;21.10;88.91;101073.91;5029085;28;45370;-72
2023/06/12 01:47:42;;;;;;;;;38.33;33.67;;;;;21.12;91.59;101072.84;5037918;28;45385;-72
2023/06/12 01:50:08;;;;;;;;;45.67;33.67;;;;;21.18;91.71;101069.78;5039932;28;45196;-71
2023/06/12 01:52:34;;;;;;;;;37.67;34.00;;;;;21.24;91.03;101092.66;5040149;28;45807;-71
2023/06/12 01:55:00;;;;;;;;;46.00;35.33;;;;;21.22;89.21;101081.19;5040125;28;45462;-71
2023/06/12 01:57:27;;;;;;;;;43.67;34.67;;;;;21.24;91.46;101078.41;5040139;28;46252;-71
2023/06/12 01:59:53;;;;;;;;;42.33;34.67;;;;;21.26;91.11;101077.38;5039747;28;45294;-71
2023/06/12 02:02:20;;;;;;;;;43.33;34.33;;;;;21.22;90.70;101079.34;5039520;28;45272;-71
2023/06/12 02:04:46;;;;;;;;;44.67;36.67;;;;;21.19;89.72;101087.59;5040071;28;45300;-72
2023/06/12 02:07:11;;;;;;;;;40.67;35.00;;;;;21.11;89.73;101079.16;5039196;28;46513;-71
2023/06/12 02:09:37;;;;;;;;;45.00;33.67;;;;;21.07;89.66;101072.25;5039832;28;45412;-72
2023/06/12 02:12:02;;;;;;;;;47.00;36.33;;;;;21.08;90.60;101081.19;5039559;28;45744;-72
2023/06/12 02:14:28;;;;;;;;;38.67;33.33;;;;;21.00;90.86;101073.59;5040093;28;45325;-71
2023/06/12 02:16:54;;;;;;;;;44.33;36.67;;;;;21.03;89.60;101078.78;5038595;28;46002;-72
2023/06/12 02:19:25;;;;;;;;;48.33;37.00;;;;;21.06;89.78;101086.63;5025492;28;45186;-72
2023/06/12 02:21:54;;;;;;;;;42.67;36.33;;;;;21.03;90.53;101085.00;5035926;28;45472;-72
2023/06/12 02:24:19;;;;;;;;;42.33;35.67;;;;;21.00;90.86;101073.59;5039543;28;45174;-72
2023/06/12 02:26:45;;;;;;;;;37.67;32.33;;;;;21.03;90.98;101085.00;5039098;28;46080;-72
2023/06/12 02:29:14;;;;;;;;;39.33;33.00;;;;;20.99;91.30;101070.06;5039290;28;45487;-72
2023/06/12 02:31:40;;;;;;;;;44.00;36.33;;;;;20.99;91.49;101080.78;5039826;28;45440;-71
2023/06/12 02:34:05;;;;;;;;;42.00;36.33;;;;;21.00;90.30;101082.50;5039770;28;45290;-71
2023/06/12 02:36:31;;;;;;;;;48.33;39.67;;;;;20.92;91.26;101083.94;5039440;28;45366;-72
2023/06/12 02:38:56;;;;;;;;;43.67;33.00;;;;;20.71;90.89;101054.84;5039158;28;45372;-73
2023/06/12 02:41:22;;;;;;;;;42.00;36.00;;;;;20.83;92.20;101074.66;5039153;28;45473;-71
2023/06/12 02:43:48;;;;;;;;;48.67;37.33;;;;;20.91;92.15;101087.56;5039465;28;45444;-71
2023/06/12 02:46:13;;;;;;;;;45.00;37.00;;;;;20.92;91.67;101095.50;5039048;28;45431;-71
2023/06/12 02:48:38;;;;;;;;;52.33;39.67;;;;;20.80;91.67;101074.84;5039224;28;45413;-72
2023/06/12 02:51:04;;;;;;;;;46.33;37.33;;;;;20.82;92.41;101076.44;5039143;28;45462;-72
2023/06/12 02:53:31;;;;;;;;;47.00;36.00;;;;;20.89;93.24;101076.94;5037130;28;45504;-72
2023/06/12 02:55:56;;;;;;;;;42.67;36.67;;;;;20.93;93.40;101080.31;5039023;28;45441;-72
2023/06/12 02:58:21;;;;;;;;;46.33;37.00;;;;;20.93;93.47;101067.78;5038822;28;45472;-72
2023/06/12 03:00:47;;;;;;;;;44.67;35.00;;;;;21.03;94.02;101073.44;5039204;28;45518;-71
2023/06/12 03:03:15;;;;;;;;;45.33;37.67;;;;;21.07;93.96;101082.13;5039170;28;45412;-71
2023/06/12 03:05:41;;;;;;;;;46.67;37.00;;;;;20.99;90.88;101067.38;5031200;28;46278;-72
2023/06/12 03:08:08;;;;;;;;;44.67;37.00;;;;;20.99;93.22;101071.91;5038720;28;45171;-72
2023/06/12 03:10:34;;;;;;;;;49.33;39.00;;;;;21.03;92.99;101070.75;5038712;28;45242;-71
2023/06/12 03:12:59;;;;;;;;;45.00;33.67;;;;;20.98;92.83;101070.16;5039008;28;45521;-72
2023/06/12 03:15:26;;;;;;;;;40.00;34.00;;;;;20.99;92.92;101077.25;5038524;28;46605;-72
2023/06/12 03:17:51;;;;;;;;;47.33;38.33;;;;;21.00;93.87;101078.94;5038928;28;45429;-72
2023/06/12 03:20:17;;;;;;;;;47.00;34.67;;;;;20.90;92.71;101067.09;5038547;28;45473;-72
2023/06/12 03:22:43;;;;;;;;;48.67;39.67;;;;;20.86;92.37;101074.47;5038953;28;45495;-72
2023/06/12 03:25:10;;;;;;;;;46.67;38.33;;;;;20.84;92.57;101077.22;5038413;28;45495;-72
2023/06/12 03:27:36;;;;;;;;;43.33;36.67;;;;;20.92;94.06;101083.94;5038258;28;45243;-72
2023/06/12 03:30:02;;;;;;;;;46.67;39.67;;;;;20.82;94.46;101071.09;5029176;28;45339;-72
2023/06/12 03:32:28;;;;;;;;;47.67;37.67;;;;;20.93;91.37;101091.88;5028515;28;45486;-72
2023/06/12 03:34:54;;;;;;;;;40.67;36.33;;;;;20.83;90.51;101080.00;5038274;28;46198;-72
2023/06/12 03:37:19;;;;;;;;;48.67;39.67;;;;;20.72;91.02;101083.31;5038528;28;45365;-72
2023/06/12 03:39:45;;;;;;;;;42.00;35.67;;;;;20.72;91.26;101091.34;5037845;28;45345;-72
2023/06/12 03:42:10;;;;;;;;;47.33;38.33;;;;;20.64;92.32;101083.75;5038914;28;45502;-72
2023/06/12 03:44:36;;;;;;;;;47.33;39.00;;;;;20.71;92.49;101089.63;5037905;28;46084;-72
2023/06/12 03:47:01;;;;;;;;;42.67;37.00;;;;;20.78;92.52;101100.81;5038194;28;45502;-72
2023/06/12 03:49:27;;;;;;;;;52.00;42.00;;;;;20.70;91.65;101096.78;5038139;28;45358;-72
2023/06/12 03:51:52;;;;;;;;;53.67;42.00;;;;;20.78;92.48;101115.06;5038585;28;45302;-72
2023/06/12 03:54:18;;;;;;;;;51.33;39.67;;;;;20.83;93.58;101120.16;5038364;28;46753;-72
2023/06/12 03:56:44;;;;;;;;;50.00;36.67;;;;;20.83;93.19;101118.31;5037742;28;45239;-72
2023/06/12 03:59:10;;;;;;;;;49.00;39.33;;;;;20.81;93.45;101120.25;5038197;28;45855;-72
2023/06/12 04:01:36;;;;;;;;;51.00;40.67;;;;;20.82;92.46;101115.75;5037997;28;45551;-72
2023/06/12 04:04:01;;;;;;;;;49.00;40.33;;;;;20.72;91.10;101103.88;5037603;28;46590;-72
2023/06/12 04:06:29;;;;;;;;;46.00;39.33;;;;;20.69;90.96;101110.25;5037317;28;45344;-72
2023/06/12 04:08:54;;;;;;;;;46.67;39.00;;;;;20.77;92.59;101136.59;5025036;28;45412;-72
2023/06/12 04:11:20;;;;;;;;;47.00;39.00;;;;;20.67;90.10;101129.06;5024895;28;45342;-73
2023/06/12 04:13:46;;;;;;;;;52.00;40.67;;;;;20.66;91.45;101139.84;5037624;28;46521;-72
2023/06/12 04:16:11;;;;;;;;;52.67;41.33;;;;;20.64;92.45;101131.91;5037804;28;45482;-72
2023/06/12 04:18:37;;;;;;;;;48.00;41.00;;;;;20.73;93.06;101138.56;5037725;28;45476;-72
2023/06/12 04:21:04;;;;;;;;;49.00;38.33;;;;;20.80;92.81;101139.91;5038066;28;45287;-72
2023/06/12 04:23:31;;;;;;;;;50.33;40.33;;;;;20.79;93.38;101140.88;5037650;28;45316;-72
2023/06/12 04:26:05;;;;;;;;;49.33;37.33;;;;;20.87;92.65;101145.78;5036632;28;45518;-72
2023/06/12 04:28:32;;;;;;;;;47.33;39.33;;;;;20.84;93.04;101144.16;5018063;28;45439;-72
2023/06/12 04:30:59;;;;;;;;;51.67;39.33;;;;;20.76;93.55;101118.78;5029512;28;45801;-72
2023/06/12 04:33:28;;;;;;;;;46.67;39.67;;;;;20.87;93.37;101138.59;5037481;28;45848;-72
2023/06/12 04:35:55;;;;;;;;;53.00;39.00;;;;;20.97;92.68;101146.94;5037378;28;45296;-72
2023/06/12 04:38:23;;;;;;;;;43.67;37.67;;;;;20.92;90.70;101141.00;5037526;28;45474;-71
2023/06/12 04:40:51;;;;;;;;;53.67;41.00;;;;;20.96;93.10;101150.56;5037199;28;45551;-71
2023/06/12 04:43:19;;;;;;;;;46.33;37.33;;;;;21.00;93.60;101141.41;5023593;28;45504;-71
2023/06/12 04:45:45;;;;;;;;;56.33;42.67;;;;;20.98;92.16;101137.94;5034596;28;45340;-71
2023/06/12 04:48:11;;;;;;;;;54.67;42.00;;;;;21.07;92.36;101152.59;5037442;28;45290;-71
2023/06/12 04:50:36;;;;;;;;;59.25;47.50;;;;;21.07;92.19;101152.59;5037776;28;45366;-72
2023/06/12 04:53:02;;;;;;;;;57.75;44.25;;;;;21.03;90.94;101132.34;5036447;28;45408;-76
2023/06/12 04:55:28;;;;;;;;;58.25;46.25;;;;;21.01;89.95;101121.72;5036451;28;45420;-74
2023/06/12 04:57:54;;;;;;;;;58.00;47.00;;;;;21.19;90.19;101138.47;5037107;28;45508;-75
2023/06/12 05:00:20;;;;;;;;;56.50;46.00;;;;;21.28;88.18;101150.44;5037348;28;45223;-73
2023/06/12 05:02:49;;;;;;;;;58.00;46.50;;;;;21.25;88.35;101139.03;5037066;28;46294;-74
2023/06/12 05:05:15;;;;;;;;;55.67;45.67;;;;;21.20;88.86;101124.13;5036728;28;45597;-74
2023/06/12 05:07:41;;;;;;;;;59.50;45.50;;;;;21.35;88.63;101134.84;5036652;28;45862;-73
2023/06/12 05:10:07;;;;;;;;;54.00;42.33;;;;;21.36;88.09;101132.06;5037527;28;45386;-74
2023/06/12 05:12:32;;;;;;;;;52.67;43.33;;;;;21.36;87.62;101133.88;5035860;28;46269;-74
2023/06/12 05:15:00;;;;;;;;;57.33;44.00;;;;;21.36;88.56;101125.84;5036592;28;45400;-74
2023/06/12 05:17:27;;;;;;;;;54.33;42.33;;;;;21.41;86.56;101137.16;5035418;28;45484;-75
2023/06/12 05:19:52;;;;;;;;;52.33;41.67;;;;;21.42;88.34;101124.59;5030261;28;45436;-74
2023/06/12 05:22:18;;;;;;;;;54.67;44.33;;;;;21.33;87.54;101100.13;5023898;28;45418;-74
2023/06/12 05:24:43;;;;;;;;;61.25;47.50;;;;;21.50;87.27;101117.81;5036426;28;45351;-73
2023/06/12 05:27:08;;;;;;;;;53.00;42.33;;;;;21.59;87.18;101124.44;5036087;28;45426;-73
2023/06/12 05:29:34;;;;;;;;;102.00;96.50;;;;;21.60;87.00;101131.53;5037016;28;45843;-74
2023/06/12 05:32:00;;;;;;;;;56.75;44.50;;;;;21.62;86.31;101132.28;5035635;28;45563;-74
2023/06/12 05:34:25;;;;;;;;;55.00;42.67;;;;;21.68;86.07;101144.44;5036684;28;45437;-73
2023/06/12 05:36:51;;;;;;;;;54.00;45.25;;;;;21.59;86.34;101126.25;5036557;28;45448;-73
2023/06/12 05:39:16;;;;;;;;;55.25;44.25;;;;;21.60;85.88;101122.63;5036466;28;45440;-73
2023/06/12 05:41:42;;;;;;;;;51.00;41.67;;;;;21.69;86.79;101135.44;5035997;28;45487;-73
2023/06/12 05:44:08;;;;;;;;;50.00;39.00;;;;;21.68;86.67;101125.66;5036608;28;45264;-74
2023/06/12 05:46:34;;;;;;;;;54.25;41.75;;;;;21.78;86.30;101139.34;5053834;28;45503;-74
2023/06/12 05:49:00;;;;;;;;;49.33;41.33;;;;;21.82;85.30;101130.16;5035777;28;46643;-74
2023/06/12 05:51:26;;;;;;;;;53.00;44.25;;;;;21.61;85.22;101087.69;5031027;28;47235;-75
2023/06/12 05:53:51;;;;;;;;;55.75;43.50;;;;;21.89;85.34;101142.22;5035991;28;45222;-74
2023/06/12 05:56:16;;;;;;;;;53.00;42.00;;;;;21.86;84.05;101129.84;5020173;28;45290;-74
2023/06/12 05:58:44;;;;;;;;;49.00;41.67;;;;;21.86;84.86;101123.66;5017400;28;45339;-74
2023/06/12 06:01:11;;;;;;;;;52.00;41.33;;;;;21.97;83.85;101147.91;5017016;28;45518;-73
2023/06/12 06:03:42;;;;;;;;;51.00;38.00;;;;;22.01;83.36;101148.59;5017064;28;45436;-73
2023/06/12 06:06:08;;;;;;;;;48.67;38.67;;;;;22.04;83.19;101157.28;5028065;28;45450;-75
2023/06/12 06:08:34;;;;;;;;;54.33;44.33;;;;;22.04;83.28;101151.94;5016906;28;45321;-74
2023/06/12 06:11:00;;;;;;;;;54.33;43.67;;;;;22.05;83.35;101145.63;5016557;28;46246;-74
2023/06/12 06:13:25;;;;;;;;;50.67;40.00;;;;;22.01;82.72;101128.00;5016832;28;45369;-75
2023/06/12 06:15:51;;;;;;;;;55.00;40.33;;;;;22.09;81.55;101132.88;5016942;28;45414;-74
2023/06/12 06:18:17;;;;;;;;;48.33;39.67;;;;;22.17;82.09;101146.63;5031864;28;45430;-75
2023/06/12 06:20:42;;;;;;;;;59.33;43.33;;;;;22.26;82.35;101142.50;5016599;28;45246;-73
2023/06/12 06:23:07;;;;;;;;;54.75;44.25;;;;;22.25;81.42;101133.59;5016729;28;45247;-73
2023/06/12 06:25:33;;;;;;;;;55.00;44.75;;;;;22.36;80.97;101151.69;5023514;28;45517;-75
2023/06/12 06:27:58;;;;;;;;;53.50;42.00;;;;;22.36;81.25;101148.16;5033560;28;45435;-75
2023/06/12 06:30:23;;;;;;;;;50.00;41.33;;;;;22.38;82.02;101141.72;5033999;28;45233;-74
2023/06/12 06:32:50;;;;;;;;;54.33;42.33;;;;;22.40;80.90;101141.63;5033050;28;45416;-74
2023/06/12 06:35:15;;;;;;;;;55.75;45.25;;;;;22.43;80.62;101138.72;5039252;28;45337;-74
2023/06/12 06:37:40;;;;;;;;;53.50;45.50;;;;;22.45;80.31;101136.78;5039516;28;45199;-74
2023/06/12 06:40:06;;;;;;;;;50.33;43.33;;;;;22.51;80.27;101140.88;5038672;28;45408;-74
2023/06/12 06:42:32;;;;;;;;;51.75;43.25;;;;;22.52;79.63;101143.47;5038938;28;45464;-74
2023/06/12 06:44:57;;;;;;;;;54.33;43.67;;;;;22.61;79.41;101152.72;5038160;28;45350;-74
2023/06/12 06:47:22;;;;;;;;;53.25;43.00;;;;;22.60;80.05;101149.19;5038773;28;45400;-73
2023/06/12 06:49:49;;;;;;;;;53.33;41.33;;;;;22.56;78.69;101134.25;5054268;28;46393;-74
2023/06/12 06:52:17;;;;;;;;;53.00;43.00;;;;;22.69;79.29;101157.59;5038744;28;45546;-74
2023/06/12 06:54:42;;;;;;;;;53.50;42.25;;;;;22.68;79.39;101147.81;5038839;28;45559;-74
2023/06/12 06:57:07;;;;;;;;;58.25;47.00;;;;;22.74;79.36;101150.97;5039251;28;45513;-73
2023/06/12 06:59:33;;;;;;;;;51.25;42.50;;;;;22.77;79.02;101149.88;5039542;28;45646;-72
2023/06/12 07:01:58;;;;;;;;;55.00;44.50;;;;;22.85;78.86;101144.00;5039561;28;45269;-74
2023/06/12 07:04:23;;;;;;;;;57.25;45.50;;;;;22.92;77.89;101148.84;5039463;28;45242;-73
2023/06/12 07:06:49;;;;;;;;;55.25;45.00;;;;;22.98;78.21;101146.72;5039788;28;45357;-72
2023/06/12 07:09:14;;;;;;;;;55.75;45.00;;;;;23.04;77.74;101149.81;5039067;28;45363;-74
2023/06/12 07:11:39;;;;;;;;;57.25;46.25;;;;;23.22;76.85;101153.09;5032531;28;45395;-73
2023/06/12 07:14:05;;;;;;;;;58.00;46.75;;;;;23.50;76.82;101150.28;5025620;28;45239;-74
2023/06/12 07:16:31;;;;;;;;;58.25;46.00;;;;;23.95;74.86;101140.75;5019385;28;45500;-74
2023/06/12 07:18:57;;;;;;;;;57.50;46.25;;;;;24.26;73.69;101151.94;5029926;28;46036;-73
2023/06/12 07:21:22;;;;;;;;;56.50;44.75;;;;;24.44;72.22;101114.72;5032536;28;45515;-72
2023/06/12 07:23:51;;;;;;;;;56.50;45.50;;;;;24.62;71.03;101147.50;5028695;28;45669;-73
2023/06/12 07:26:16;;;;;;;;;57.25;45.50;;;;;24.61;72.33;101158.38;5039332;28;45538;-73
2023/06/12 07:28:42;;;;;;;;;59.50;46.25;;;;;24.90;71.09;101153.47;5031949;28;46144;-72
2023/06/12 07:31:07;;;;;;;;;57.50;46.75;;;;;25.17;69.84;101149.63;5026400;28;45423;-73
2023/06/12 07:33:32;;;;;;;;;57.50;46.50;;;;;25.24;69.83;101153.56;5054480;28;45385;-73
2023/06/12 07:35:58;;;;;;;;;57.75;47.50;;;;;25.57;68.48;101156.41;5039248;28;45388;-74
2023/06/12 07:38:23;;;;;;;;;55.75;44.25;;;;;25.59;67.14;101149.03;5038847;28;45419;-74
2023/06/12 07:40:48;;;;;;;;;62.00;48.75;;;;;25.37;66.24;101143.53;5033470;28;45382;-75
2023/06/12 07:43:13;;;;;;;;;54.25;42.75;;;;;25.18;68.62;101145.94;5036236;28;45444;-74
2023/06/12 07:45:39;;;;;;;;;55.50;45.00;;;;;24.96;67.27;101152.97;5035909;28;45429;-74
2023/06/12 07:48:05;;;;;;;;;57.25;45.75;;;;;24.89;66.89;101161.66;5038679;28;47277;-74
2023/06/12 07:50:30;;;;;;;;;59.50;47.75;;;;;24.80;68.87;101155.16;5036404;28;45481;-73
2023/06/12 07:52:55;;;;;;;;;57.50;47.50;;;;;24.77;69.35;101155.38;5033665;28;45403;-73
2023/06/12 07:55:21;;;;;;;;;55.25;45.50;;;;;24.83;69.86;101165.69;5034155;28;45311;-73
2023/06/12 07:57:50;;;;;;;;;60.00;47.00;;;;;24.80;69.48;101150.63;5037561;28;45403;-73
2023/06/12 08:00:16;;;;;;;;;52.25;43.25;;;;;25.17;68.95;101161.25;5028870;28;46010;-71
2023/06/12 08:02:41;;;;;;;;;57.25;43.75;;;;;25.20;66.32;101166.41;5031711;28;45417;-71
2023/06/12 08:05:08;;;;;;;;;56.50;44.50;;;;;25.18;66.93;101171.06;5033737;28;45438;-72
2023/06/12 08:07:33;;;;;;;;;58.00;46.75;;;;;25.11;67.86;101150.06;5035442;28;45480;-72
2023/06/12 08:09:59;;;;;;;;;59.25;46.25;;;;;25.13;66.78;101150.84;5033298;28;45405;-71
2023/06/12 08:12:25;;;;;;;;;52.00;42.00;;;;;25.20;66.53;101166.41;5035547;28;45306;-72
2023/06/12 08:14:51;;;;;;;;;51.75;43.50;;;;;25.23;65.60;101150.97;5038308;28;45236;-72
2023/06/12 08:17:17;;;;;;;;;55.75;44.50;;;;;25.27;65.22;101136.25;5038214;28;46659;-72
2023/06/12 08:19:43;;;;;;;;;55.00;43.00;;;;;25.28;64.96;101146.06;5033941;28;45423;-72
2023/06/12 08:22:08;;;;;;;;;55.75;41.75;;;;;25.22;65.29;101144.72;5038261;28;45386;-72
2023/06/12 08:24:35;;;;;;;;;54.25;41.75;;;;;25.24;65.79;101137.38;5038411;28;45416;-74
2023/06/12 08:27:02;;;;;;;;;53.00;40.25;;;;;25.33;64.07;101144.75;5038219;28;46452;-72
2023/06/12 08:29:28;;;;;;;;;49.50;41.25;;;;;25.68;61.28;101145.63;5037883;28;45250;-72
2023/06/12 08:31:56;;;;;;;;;53.00;42.00;;;;;25.83;62.93;101135.44;5038085;28;45386;-72
2023/06/12 08:34:24;;;;;;;;;55.50;45.00;;;;;25.87;62.13;101135.06;5038391;28;45376;-72
2023/06/12 08:36:50;;;;;;;;;53.00;43.50;;;;;25.79;61.44;101125.88;5037898;28;45423;-72
2023/06/12 08:39:16;;;;;;;;;53.50;43.00;;;;;26.26;60.98;101136.47;5026155;28;45377;-72
2023/06/12 08:42:01;;;;;;;;;55.50;43.75;;;;;26.50;60.23;101133.56;5037998;28;45349;-72
2023/06/12 08:44:28;;;;;;;;;46.00;37.50;;;;;26.61;59.13;101124.56;5034568;28;45271;-73
2023/06/12 08:46:56;;;;;;;;;53.00;42.00;;;;;26.71;57.43;101134.47;5036946;28;46625;-71
2023/06/12 08:49:21;;;;;;;;;53.00;41.75;;;;;26.82;57.66;101132.69;5036535;28;45355;-73
2023/06/12 08:51:49;;;;;;;;;55.00;43.50;;;;;26.73;58.23;101128.94;5018689;28;45437;-73
2023/06/12 08:54:15;;;;;;;;;50.25;39.50;;;;;26.70;58.41;101130.03;5018120;28;45309;-73
2023/06/12 08:56:42;;;;;;;;;48.75;40.25;;;;;26.70;57.52;101118.41;5029368;28;47411;-71
2023/06/12 08:59:09;;;;;;;;;57.00;45.75;;;;;26.77;58.98;101133.09;5035620;28;45525;-71
2023/06/12 09:01:37;;;;;;;;;53.50;41.50;;;;;26.74;58.13;101131.50;5024190;28;45408;-73
2023/06/12 09:04:28;;;;;;;;;50.00;40.50;;;;;26.64;58.67;101121.59;5033424;28;45518;-74
2023/06/12 09:07:03;;;;;;;;;50.00;42.00;;;;;26.62;58.24;101132.53;5035088;28;47130;-72
2023/06/12 09:09:38;;;;;;;;;57.50;45.75;;;;;26.46;58.96;101115.88;5034847;28;45279;-74
2023/06/12 09:12:06;;;;;;;;;57.75;44.25;;;;;26.62;59.56;101124.44;5031023;28;45471;-73
2023/06/12 09:14:35;;;;;;;;;53.25;42.00;;;;;27.07;57.43;101131.41;5034451;28;45357;-74
2023/06/12 09:17:02;;;;;;;;;50.25;39.75;;;;;27.13;55.52;101114.69;5033948;28;45442;-73
2023/06/12 09:19:45;;;;;;;;;47.75;39.25;;;;;27.32;55.11;101132.84;5031919;28;45295;-73
2023/06/12 09:22:11;;;;;;;;;46.00;38.00;;;;;27.31;55.59;101138.41;5031820;28;45333;-74
2023/06/12 09:24:37;;;;;;;;;50.00;40.00;;;;;27.26;54.94;101126.13;5032352;28;45625;-73
2023/06/12 09:27:03;;;;;;;;;52.25;42.00;;;;;27.34;55.96;101138.16;5020252;28;45554;-75
2023/06/12 09:29:36;;;;;;;;;49.75;40.25;;;;;27.43;55.14;101137.34;5024975;28;45428;-74
2023/06/12 09:32:13;;;;;;;;;52.50;43.00;;;;;27.75;55.51;101137.19;5035171;28;45373;-74
2023/06/12 09:34:45;;;;;;;;;50.25;40.00;;;;;28.13;54.57;101129.31;5034479;28;45457;-73
2023/06/12 09:37:12;;;;;;;;;50.75;41.00;;;;;28.39;52.85;101135.06;5021160;28;45435;-73
2023/06/12 09:39:38;;;;;;;;;46.75;38.25;;;;;29.77;52.02;101139.22;5032386;28;45450;-74
2023/06/12 09:42:03;;;;;;;;;50.25;39.75;;;;;31.87;47.75;101125.06;5034106;28;45310;-73
2023/06/12 09:44:30;;;;;;;;;43.00;36.00;;;;;33.98;43.18;101119.75;5033207;28;45286;-72
2023/06/12 09:47:03;;;;;;;;;48.00;39.00;;;;;36.12;38.61;101130.44;5036725;28;45403;-74
2023/06/12 09:49:30;;;;;;;;;48.50;38.75;;;;;37.68;36.73;101132.31;5037049;28;45220;-74
2023/06/12 09:52:00;;;;;;;;;42.25;36.00;;;;;39.26;34.00;101134.63;5031541;28;45654;-74
2023/06/12 09:54:28;;;;;;;;;47.00;38.25;;;;;40.37;32.32;101142.78;5036865;28;45488;-75
2023/06/12 09:57:00;;;;;;;;;39.50;35.00;;;;;41.70;30.86;101150.91;5026974;28;45387;-74
2023/06/12 09:59:28;;;;;;;;;42.00;34.50;;;;;42.90;28.98;101135.22;5016658;28;45472;-75
2023/06/12 10:02:00;;;;;;;;;39.75;34.75;;;;;44.05;27.80;101136.53;5032881;28;45351;-75
2023/06/12 10:04:40;;;;;;;;;31.25;29.75;;;;;44.77;27.39;101146.97;5031508;28;45385;-76
2023/06/12 10:07:16;;;;;;;;;33.00;30.25;;;;;45.29;23.72;101144.94;5034463;28;45317;-74
2023/06/12 10:09:42;;;;;;;;;25.25;22.75;;;;;45.95;23.38;101147.69;5032868;28;45360;-74
2023/06/12 10:12:10;;;;;;;;;26.25;25.75;;;;;46.49;24.16;101154.31;5030908;28;45478;-74
2023/06/12 10:14:37;;;;;;;;;16.75;15.50;;;;;46.89;23.64;101144.59;5037766;28;45354;-75
2023/06/12 10:17:04;;;;;;;;;24.75;23.50;;;;;47.29;21.60;101139.53;5036979;28;45601;-72
2023/06/12 10:19:31;;;;;;;;;33.00;29.50;;;;;47.73;21.30;101128.00;5039186;28;45405;-74
2023/06/12 10:21:56;;;;;;;;;24.50;22.25;;;;;48.15;20.91;101129.75;5039030;28;45569;-75
2023/06/12 10:24:23;;;;;;;;;21.50;21.25;;;;;48.53;21.99;101137.88;5037541;28;45470;-75
2023/06/12 10:26:51;;;;;;;;;22.50;21.25;;;;;48.68;20.97;101131.41;5040022;28;45494;-75
2023/06/12 10:29:33;;;;;;;;;19.50;19.50;;;;;48.76;21.07;101133.63;5039866;28;45344;-75
2023/06/12 10:32:09;;;;;;;;;25.75;25.75;;;;;48.71;18.84;101111.28;5040079;28;45389;-75
2023/06/12 10:34:43;;;;;;;;;21.25;20.50;;;;;48.57;18.77;101105.41;5039960;28;45318;-74
2023/06/12 10:37:27;;;;;;;;;18.25;18.25;;;;;48.49;18.52;101118.03;5039896;28;46388;-75
2023/06/12 10:40:10;;;;;;;;;22.00;22.00;;;;;48.69;18.81;101116.31;5039966;28;45183;-74
2023/06/12 10:42:55;;;;;;;;;22.25;22.25;;;;;48.71;17.32;101106.50;5040152;28;45439;-75
2023/06/12 10:45:24;;;;;;;;;22.50;20.00;;;;;48.94;17.27;101110.66;5040163;28;45245;-75
2023/06/12 10:48:05;;;;;;;;;25.50;24.00;;;;;48.84;18.98;101116.28;5039759;28;46444;-75
2023/06/12 10:50:38;;;;;;;;;25.25;23.75;;;;;48.56;17.60;101114.94;5039838;28;45295;-75
2023/06/12 10:53:08;;;;;;;;;23.00;20.25;;;;;48.53;18.16;101101.53;5039979;28;45379;-76
2023/06/12 10:55:36;;;;;;;;;21.50;21.50;;;;;48.20;17.44;101107.41;5040248;28;45348;-75
2023/06/12 10:58:05;;;;;;;;;19.00;19.00;;;;;47.68;17.54;101100.88;5039531;28;45524;-75
2023/06/12 11:00:40;;;;;;;;;22.00;20.25;;;;;46.77;18.12;101096.56;5039497;28;45298;-74
2023/06/12 11:03:11;;;;;;;;;17.75;17.25;;;;;45.75;17.72;101097.34;5039756;28;45320;-75
2023/06/12 11:05:38;;;;;;;;;18.75;18.75;;;;;44.60;18.20;101099.72;5039831;28;45364;-75
2023/06/12 11:08:07;;;;;;;;;20.00;19.00;;;;;43.55;19.67;101097.28;5039220;28;47260;-74
2023/06/12 11:10:34;;;;;;;;;23.75;19.50;;;;;42.53;20.62;101085.59;5039390;28;45349;-75